TimeMST,TemperatureF,Dew PointF,Humidity,Sea Level PressureIn,VisibilityMPH,Wind Direction,Wind SpeedMPH,Gust SpeedMPH,PrecipitationIn,Events,Conditions,WindDirDegrees,DateUTC
12:53 AM,48.0,18.0,30,30.22,-9999.0,North,-9999.0,-,N/A,,Clear,0,2012-11-16 07:53:00
1:53 AM,48.9,18.0,29,30.24,-9999.0,North,-9999.0,-,N/A,,Clear,0,2012-11-16 08:53:00
2:53 AM,48.0,18.0,30,30.22,-9999.0,North,-9999.0,-,N/A,,Clear,0,2012-11-16 09:53:00
3:53 AM,46.9,18.0,32,30.24,-9999.0,North,-9999.0,-,N/A,,Clear,0,2012-11-16 10:53:00
4:53 AM,46.9,19.0,33,30.26,-9999.0,North,-9999.0,-,N/A,,Clear,0,2012-11-16 11:53:00
5:53 AM,46.0,19.9,35,30.27,-9999.0,North,-9999.0,-,N/A,,Clear,0,2012-11-16 12:53:00
6:53 AM,46.0,21.0,37,30.29,-9999.0,North,-9999.0,-,N/A,,Clear,0,2012-11-16 13:53:00
7:53 AM,48.9,21.9,35,30.30,-9999.0,NNW,9.2,-,N/A,,Clear,340,2012-11-16 14:53:00
8:53 AM,52.0,21.9,31,30.31,-9999.0,NNW,10.4,-,N/A,,Clear,340,2012-11-16 15:53:00
9:53 AM,54.0,21.9,29,30.30,-9999.0,NNE,6.9,-,N/A,,Clear,20,2012-11-16 16:53:00
10:53 AM,57.0,23.0,27,30.27,-9999.0,Variable,5.8,-,N/A,,Clear,0,2012-11-16 17:53:00
11:53 AM,59.0,30.9,35,30.23,-9999.0,North,3.5,-,N/A,,Clear,350,2012-11-16 18:53:00
12:53 PM,60.1,33.1,36,30.19,-9999.0,SE,3.5,-,N/A,,Clear,140,2012-11-16 19:53:00
1:53 PM,62.1,34.0,35,30.16,-9999.0,Variable,4.6,-,N/A,,Clear,0,2012-11-16 20:53:00
2:53 PM,63.0,34.0,34,30.14,-9999.0,SSW,8.1,40.3,N/A,,Clear,210,2012-11-16 21:53:00
3:53 PM,63.0,35.1,35,30.14,-9999.0,Calm,Calm,-,N/A,,Clear,0,2012-11-16 22:53:00
4:53 PM,60.1,37.9,44,30.14,-9999.0,South,8.1,-,N/A,,Partly Cloudy,170,2012-11-16 23:53:00
5:53 PM,54.0,37.0,53,30.18,-9999.0,South,6.9,-,N/A,,Scattered Clouds,190,2012-11-17 00:53:00
6:53 PM,54.0,37.0,53,30.19,-9999.0,South,8.1,-,N/A,,Clear,180,2012-11-17 01:53:00
7:53 PM,53.1,36.0,52,30.19,-9999.0,South,6.9,-,N/A,,Clear,180,2012-11-17 02:53:00
8:53 PM,48.9,35.1,59,30.19,-9999.0,South,8.1,-,N/A,,Clear,170,2012-11-17 03:53:00
9:53 PM,48.9,35.1,59,30.19,-9999.0,South,8.1,-,N/A,,Clear,180,2012-11-17 04:53:00
10:53 PM,48.9,35.1,59,30.17,-9999.0,South,5.8,-,N/A,,Clear,170,2012-11-17 05:53:00
11:53 PM,48.0,37.0,66,30.18,-9999.0,South,5.8,-,N/A,,Clear,190,2012-11-17 06:53:00